チュニス の空港の天気 - METARとTAF

チュニス・カルタゴ国際空港 ( DTTA / TUN ) - チュニジア チュニス
飛行場実況気象(Metar)
観測時間06/17 20:30 CET (06/17 19:30 UTC)
風向・風速北西 5m/s
視程10km以上
天気現象
少しの雲 雲底高度 790m
気温22℃
湿度53%
気圧1014hPa
METARDTTA 171930Z 32009KT 9999 FEW026 22/12 Q1014
過去の天気等 Google飛行場航空写真 Wunderground天気予報

過去48時間のMETAR

飛行場予報(TAF)
発表時間: 6/17 18:00 CET (6/17 17:00 UTC)
予報対象時間: 17日19時 CET ~ 18日19時 CET
風向・風速北 6m/s
視程10km以上
全天の4割程度の雲 雲底高度 790m
17日20時 CET ~ 17日22時 CET に徐々に
風向・風速北北西 3m/s
18日3時 CET ~ 18日5時 CET に徐々に
風向・風速西 3m/s
18日9時 CET ~ 18日11時 CET に徐々に
風向・風速北北東 5m/s
TAF DTTA 171700Z 1718/1818 01012KT 9999 SCT026
BECMG 1719/1721 33006KT
BECMG 1802/1804 26005KT
BECMG 1808/1810 02010KT